createdAt,value
2022-12-08T00:01:35.494Z,94.99
2022-12-08T00:04:05.033Z,94.93
2022-12-08T00:06:59.611Z,94.91
2022-12-08T00:09:39.689Z,94.89
2022-12-08T00:12:16.553Z,94.86
2022-12-08T00:14:47.187Z,94.83
2022-12-08T00:17:17.447Z,94.87
2022-12-08T00:19:45.133Z,94.86
2022-12-08T00:22:15.396Z,94.94
2022-12-08T00:24:47.614Z,95.08
2022-12-08T00:27:18.128Z,95.17
2022-12-08T00:29:46.371Z,95.18
2022-12-08T00:32:14.970Z,95.22
2022-12-08T00:34:42.657Z,95.20
2022-12-08T00:37:10.194Z,95.22
2022-12-08T00:39:38.556Z,95.22
2022-12-08T00:42:12.037Z,95.28
2022-12-08T00:44:41.885Z,95.23
2022-12-08T00:47:10.432Z,95.21
2022-12-08T00:49:37.922Z,95.22
2022-12-08T00:52:05.590Z,95.23
2022-12-08T00:54:33.169Z,95.18
2022-12-08T00:57:00.760Z,95.21
2022-12-08T00:59:28.322Z,95.09
2022-12-08T01:01:55.945Z,95.04
2022-12-08T01:04:24.928Z,95.07
2022-12-08T01:06:53.279Z,95.08
2022-12-08T01:09:20.876Z,95.08
2022-12-08T01:11:48.559Z,95.07
2022-12-08T01:14:16.563Z,95.05
2022-12-08T01:16:44.424Z,95.21
2022-12-08T01:19:15.225Z,95.41
2022-12-08T01:21:44.782Z,95.52
2022-12-08T01:24:19.226Z,95.52
2022-12-08T01:26:48.312Z,95.48
2022-12-08T01:29:16.077Z,95.38
2022-12-08T01:31:43.650Z,95.32
2022-12-08T01:34:12.665Z,95.13
2022-12-08T01:36:42.316Z,95.04
2022-12-08T01:39:16.999Z,95.03
2022-12-08T01:41:47.653Z,94.94
2022-12-08T01:44:15.118Z,94.98
2022-12-08T01:46:48.562Z,95.00
2022-12-08T01:49:28.224Z,94.88
2022-12-08T01:52:14.433Z,94.85
2022-12-08T01:54:55.744Z,94.83
2022-12-08T01:57:34.361Z,94.78
2022-12-08T02:00:09.673Z,94.92
2022-12-08T02:03:03.314Z,94.92
2022-12-08T02:05:38.590Z,94.87
2022-12-08T02:08:13.252Z,94.91
2022-12-08T02:10:43.894Z,94.89
2022-12-08T02:13:16.769Z,94.81
2022-12-08T02:16:46.457Z,94.69
2022-12-08T02:19:43.958Z,94.67
2022-12-08T02:22:48.947Z,94.66
2022-12-08T02:25:42.438Z,94.56
2022-12-08T02:28:47.609Z,94.53
2022-12-08T02:32:15.886Z,94.40
2022-12-08T02:35:18.729Z,94.38
2022-12-08T02:37:58.566Z,94.38
2022-12-08T02:40:39.993Z,94.42
2022-12-08T02:43:22.510Z,94.46
2022-12-08T02:46:02.166Z,94.43
2022-12-08T02:48:30.955Z,94.47
2022-12-08T02:50:58.646Z,94.45
2022-12-08T02:53:32.165Z,94.42
2022-12-08T02:56:20.696Z,94.47
2022-12-08T02:59:06.025Z,94.39
2022-12-08T03:01:54.029Z,94.36
2022-12-08T03:04:26.992Z,94.56
2022-12-08T03:07:14.988Z,94.77
2022-12-08T03:09:52.986Z,94.93
2022-12-08T03:12:41.606Z,95.22
2022-12-08T03:15:15.634Z,95.39
2022-12-08T03:17:50.516Z,95.50
2022-12-08T03:20:23.875Z,95.55
2022-12-08T03:22:56.298Z,95.56
2022-12-08T03:25:31.989Z,95.50
2022-12-08T03:28:00.382Z,95.39
2022-12-08T03:30:32.670Z,95.23
2022-12-08T03:33:15.632Z,95.38
2022-12-08T03:35:45.233Z,95.35
2022-12-08T03:38:17.539Z,95.46
2022-12-08T03:41:05.649Z,95.62
2022-12-08T03:43:34.879Z,95.73
2022-12-08T03:46:02.629Z,95.65
2022-12-08T03:48:30.262Z,95.73
2022-12-08T03:50:57.994Z,95.77
2022-12-08T03:53:25.529Z,95.83
2022-12-08T03:55:54.421Z,95.97
2022-12-08T03:58:21.976Z,96.12
2022-12-08T04:00:49.565Z,96.20
2022-12-08T04:03:17.144Z,96.24
2022-12-08T04:05:44.752Z,96.18
2022-12-08T04:08:12.367Z,96.11
2022-12-08T04:10:40.227Z,96.08
2022-12-08T04:13:07.788Z,95.89
2022-12-08T04:15:35.492Z,95.66
2022-12-08T04:18:03.413Z,95.64
2022-12-08T04:20:31.055Z,95.59
2022-12-08T04:22:58.586Z,95.61
2022-12-08T04:25:26.304Z,95.59
2022-12-08T04:27:53.829Z,95.68
2022-12-08T04:30:21.313Z,95.75
2022-12-08T04:32:48.837Z,95.77
2022-12-08T04:35:16.994Z,95.73
2022-12-08T04:37:44.760Z,95.69
2022-12-08T04:40:13.543Z,95.72
2022-12-08T04:42:41.589Z,95.61
2022-12-08T04:45:10.168Z,95.58
2022-12-08T04:47:38.237Z,95.51
2022-12-08T04:50:07.623Z,95.63
2022-12-08T04:52:37.215Z,95.57
2022-12-08T04:55:05.426Z,95.61
2022-12-08T04:57:33.016Z,95.58
2022-12-08T05:00:00.598Z,95.58
2022-12-08T05:02:28.186Z,95.51
2022-12-08T05:04:55.775Z,95.41
2022-12-08T05:07:23.295Z,95.37
2022-12-08T05:09:51.331Z,95.28
2022-12-08T05:12:18.882Z,95.23
2022-12-08T05:14:48.420Z,95.02
2022-12-08T05:17:19.161Z,94.97
2022-12-08T05:19:46.917Z,94.98
2022-12-08T05:22:14.461Z,94.67
2022-12-08T05:24:47.170Z,94.70
2022-12-08T05:27:16.052Z,94.81
2022-12-08T05:29:44.333Z,94.97
2022-12-08T05:32:11.973Z,95.35
2022-12-08T05:34:39.806Z,95.44
2022-12-08T05:37:07.407Z,95.56
2022-12-08T05:39:35.092Z,95.49
2022-12-08T05:42:02.838Z,95.50
2022-12-08T05:44:30.456Z,95.40
2022-12-08T05:46:57.991Z,95.19
2022-12-08T05:49:25.917Z,95.24
2022-12-08T05:51:53.483Z,95.39
2022-12-08T05:54:21.121Z,95.32
2022-12-08T05:56:49.837Z,95.53
2022-12-08T05:59:17.363Z,95.86
2022-12-08T06:01:44.926Z,95.97
2022-12-08T06:04:12.757Z,95.87
2022-12-08T06:06:40.233Z,95.81
2022-12-08T06:09:09.159Z,95.93
2022-12-08T06:11:36.950Z,96.11
2022-12-08T06:14:04.604Z,96.16
2022-12-08T06:16:32.872Z,96.20
2022-12-08T06:19:00.458Z,96.16
2022-12-08T06:21:28.842Z,96.11
2022-12-08T06:23:56.501Z,96.14
2022-12-08T06:26:24.205Z,96.18
2022-12-08T06:28:52.761Z,96.21
2022-12-08T06:31:23.245Z,96.25
2022-12-08T06:33:51.900Z,96.33
2022-12-08T06:36:24.766Z,96.41
2022-12-08T06:38:52.996Z,96.50
2022-12-08T06:41:20.757Z,96.62
2022-12-08T06:43:48.528Z,96.80
2022-12-08T06:46:19.818Z,96.91
2022-12-08T06:48:48.069Z,96.93
2022-12-08T06:51:19.933Z,96.79
2022-12-08T06:53:47.761Z,96.57
2022-12-08T06:56:19.927Z,96.42
2022-12-08T06:58:52.323Z,96.05
2022-12-08T07:01:21.278Z,95.56
2022-12-08T07:03:48.911Z,94.93
2022-12-08T07:06:25.278Z,95.01
2022-12-08T07:08:53.055Z,94.92
2022-12-08T07:11:22.304Z,94.40
2022-12-08T07:13:51.055Z,94.32
2022-12-08T07:16:18.876Z,94.28
2022-12-08T07:18:46.528Z,94.39
2022-12-08T07:21:17.593Z,94.39
2022-12-08T07:23:54.299Z,94.07
2022-12-08T07:26:25.821Z,93.90
2022-12-08T07:28:53.347Z,93.97
2022-12-08T07:31:24.947Z,94.09
2022-12-08T07:33:53.727Z,93.94
2022-12-08T07:36:22.317Z,93.96
2022-12-08T07:38:50.627Z,94.10
2022-12-08T07:41:23.533Z,93.98
2022-12-08T07:43:53.571Z,93.74
2022-12-08T07:46:24.801Z,93.61
2022-12-08T07:48:54.070Z,93.08
2022-12-08T07:51:21.676Z,93.04
2022-12-08T07:53:54.196Z,93.22
2022-12-08T07:56:23.270Z,92.75
2022-12-08T07:58:51.243Z,92.67
2022-12-08T08:01:32.893Z,93.12
2022-12-08T08:04:06.908Z,92.92
2022-12-08T08:06:37.891Z,92.37
2022-12-08T08:09:05.917Z,92.56
2022-12-08T08:11:33.702Z,92.16
2022-12-08T08:14:01.538Z,91.29
2022-12-08T08:16:33.524Z,91.38
2022-12-08T08:19:04.278Z,90.69
2022-12-08T08:21:47.175Z,90.32
2022-12-08T08:24:14.735Z,90.45
2022-12-08T08:26:42.305Z,90.95
2022-12-08T08:29:10.007Z,90.87
2022-12-08T08:31:37.654Z,90.55
2022-12-08T08:34:06.403Z,90.27
2022-12-08T08:36:34.395Z,90.16
2022-12-08T08:39:02.201Z,89.55
2022-12-08T08:41:29.809Z,89.95
2022-12-08T08:43:57.387Z,89.43
2022-12-08T08:46:25.142Z,89.38
2022-12-08T08:48:52.782Z,89.56
2022-12-08T08:51:21.000Z,89.56
2022-12-08T08:53:48.624Z,89.22
2022-12-08T08:56:22.374Z,89.42
2022-12-08T08:58:51.891Z,89.18
2022-12-08T09:01:26.344Z,88.94
2022-12-08T09:03:54.997Z,88.95
2022-12-08T09:06:24.123Z,88.83
2022-12-08T09:08:52.105Z,89.36
2022-12-08T09:11:19.737Z,89.81
2022-12-08T09:13:53.359Z,89.85
2022-12-08T09:16:21.759Z,89.47
2022-12-08T09:18:49.621Z,89.11
2022-12-08T09:21:22.904Z,89.26
2022-12-08T09:23:53.921Z,89.16
2022-12-08T09:26:23.311Z,88.90
2022-12-08T09:28:53.328Z,88.91
2022-12-08T09:31:23.216Z,88.95
2022-12-08T09:33:54.452Z,88.39
2022-12-08T09:36:22.107Z,88.52
2022-12-08T09:38:51.095Z,88.36
2022-12-08T09:41:48.218Z,88.52
2022-12-08T09:44:47.969Z,87.66
2022-12-08T09:47:33.780Z,87.74
2022-12-08T09:50:14.145Z,88.13
2022-12-08T09:52:52.567Z,88.22
2022-12-08T09:55:49.866Z,87.82
2022-12-08T09:58:53.773Z,87.54
2022-12-08T10:01:26.612Z,88.04
2022-12-08T10:03:57.422Z,87.31
2022-12-08T10:07:24.924Z,87.37
2022-12-08T10:10:11.546Z,88.04
2022-12-08T10:13:01.188Z,87.34
2022-12-08T10:15:43.647Z,87.93
2022-12-08T10:18:28.324Z,87.05
2022-12-08T10:21:12.373Z,86.68
2022-12-08T10:23:45.522Z,85.98
2022-12-08T10:26:17.616Z,85.29
2022-12-08T10:28:45.948Z,86.14
2022-12-08T10:31:32.458Z,86.33
2022-12-08T10:34:20.848Z,86.74
2022-12-08T10:36:59.091Z,86.61
2022-12-08T10:39:36.957Z,86.12
2022-12-08T10:42:13.768Z,86.49
2022-12-08T10:45:11.756Z,86.73
2022-12-08T10:47:45.000Z,87.34
2022-12-08T10:50:28.488Z,88.36
2022-12-08T10:53:20.023Z,88.97
2022-12-08T10:55:58.350Z,88.86
2022-12-08T10:58:36.291Z,88.71
2022-12-08T11:01:26.791Z,88.69
2022-12-08T11:03:58.408Z,89.06
2022-12-08T11:06:32.751Z,89.49
2022-12-08T11:09:17.409Z,89.37
2022-12-08T11:11:58.334Z,89.56
2022-12-08T11:14:29.031Z,89.23
2022-12-08T11:17:07.229Z,89.31
2022-12-08T11:19:41.967Z,88.74
2022-12-08T11:22:30.709Z,88.87
2022-12-08T11:25:24.875Z,89.20
2022-12-08T11:27:57.854Z,89.88
2022-12-08T11:30:36.378Z,90.31
2022-12-08T11:33:19.853Z,90.39
2022-12-08T11:35:56.297Z,90.09
2022-12-08T11:38:27.732Z,90.85
2022-12-08T11:41:22.910Z,91.46
2022-12-08T11:44:05.777Z,91.29
2022-12-08T11:46:58.593Z,91.10
2022-12-08T11:49:40.325Z,90.90
2022-12-08T11:52:26.564Z,90.82
2022-12-08T11:55:05.455Z,90.89
2022-12-08T11:57:33.260Z,91.47
2022-12-08T12:00:02.768Z,91.89
2022-12-08T12:02:48.344Z,91.84
2022-12-08T12:06:23.930Z,91.92
2022-12-08T12:09:22.835Z,92.10
2022-12-08T12:12:15.992Z,91.99
2022-12-08T12:16:00.668Z,91.86
2022-12-08T12:18:47.680Z,91.79
2022-12-08T12:21:35.913Z,92.31
2022-12-08T12:24:25.476Z,92.43
2022-12-08T12:27:22.863Z,92.56
2022-12-08T12:30:06.733Z,92.67
2022-12-08T12:32:58.290Z,92.62
2022-12-08T12:35:41.103Z,92.66
2022-12-08T12:38:42.793Z,92.57
2022-12-08T12:41:13.537Z,92.71
2022-12-08T12:44:13.101Z,92.56
2022-12-08T12:46:46.296Z,92.46
2022-12-08T12:49:39.215Z,92.51
2022-12-08T12:52:16.033Z,92.47
2022-12-08T12:54:55.690Z,92.39
2022-12-08T12:57:37.213Z,92.40
2022-12-08T13:00:04.656Z,92.34
2022-12-08T13:02:44.148Z,92.25
2022-12-08T13:05:31.680Z,92.09
2022-12-08T13:08:19.180Z,91.90
2022-12-08T13:11:09.815Z,91.83
2022-12-08T13:13:56.439Z,91.73
2022-12-08T13:16:27.167Z,91.59
2022-12-08T13:19:03.524Z,91.43
2022-12-08T13:21:39.117Z,91.55
2022-12-08T13:24:33.141Z,91.66
2022-12-08T13:27:03.779Z,91.73
2022-12-08T13:29:33.515Z,91.79
2022-12-08T13:32:10.077Z,91.88
2022-12-08T13:34:45.429Z,92.15
2022-12-08T13:37:15.654Z,92.35
2022-12-08T13:40:00.897Z,92.66
2022-12-08T13:42:40.524Z,92.84
2022-12-08T13:45:27.845Z,93.26
2022-12-08T13:48:44.677Z,93.61
2022-12-08T13:55:12.948Z,93.82
2022-12-08T13:57:29.642Z,93.85
2022-12-08T14:00:15.331Z,93.95
2022-12-08T14:02:48.559Z,94.13
2022-12-08T14:05:34.618Z,94.23
2022-12-08T14:08:57.018Z,94.27
2022-12-08T14:11:33.777Z,94.28
2022-12-08T14:14:06.503Z,94.28
2022-12-08T14:16:40.765Z,94.45
2022-12-08T14:19:21.128Z,94.51
2022-12-08T14:22:14.118Z,94.67
2022-12-08T14:24:57.826Z,94.67
2022-12-08T14:27:32.293Z,94.76
2022-12-08T14:30:07.677Z,94.85
2022-12-08T14:32:39.468Z,94.81
2022-12-08T14:35:07.195Z,94.80
2022-12-08T14:37:48.720Z,94.91
2022-12-08T14:40:25.155Z,95.13
2022-12-08T14:43:19.709Z,95.30
2022-12-08T14:45:50.864Z,95.31
2022-12-08T14:48:31.022Z,95.27
2022-12-08T14:51:21.217Z,95.18
2022-12-08T14:53:56.267Z,95.13
2022-12-08T14:56:45.437Z,95.10
2022-12-08T14:59:23.047Z,95.14
2022-12-08T15:02:08.827Z,95.21
2022-12-08T15:04:44.656Z,95.27
2022-12-08T15:07:19.538Z,95.28
2022-12-08T15:10:05.918Z,95.23
2022-12-08T15:12:33.795Z,95.13
2022-12-08T15:15:14.415Z,95.21
2022-12-08T15:17:51.626Z,95.09
2022-12-08T15:20:40.967Z,95.10
2022-12-08T15:23:38.424Z,95.08
2022-12-08T15:26:06.540Z,95.08
2022-12-08T15:28:34.280Z,95.09
2022-12-08T15:31:02.447Z,95.02
2022-12-08T15:33:29.912Z,94.97
2022-12-08T15:35:57.447Z,94.89
2022-12-08T15:38:28.862Z,94.93
2022-12-08T15:41:00.822Z,94.75
2022-12-08T15:43:31.336Z,94.45
2022-12-08T15:46:00.226Z,94.15
2022-12-08T15:48:30.635Z,94.44
2022-12-08T15:50:58.591Z,94.94
2022-12-08T15:53:26.315Z,95.10
2022-12-08T15:58:55.257Z,95.13
2022-12-08T16:01:24.559Z,95.00
2022-12-08T16:07:20.257Z,95.57
2022-12-08T16:09:38.629Z,95.30
2022-12-08T16:13:13.420Z,94.70
2022-12-08T16:18:27.623Z,94.45
2022-12-08T16:23:45.236Z,94.76
2022-12-08T16:26:35.437Z,95.02
2022-12-08T16:29:05.660Z,95.22
2022-12-08T16:31:33.506Z,95.49
2022-12-08T16:34:01.209Z,95.84
2022-12-08T16:36:28.856Z,95.76
2022-12-08T16:38:56.539Z,95.55
2022-12-08T16:41:43.112Z,95.36
2022-12-08T16:44:10.653Z,95.24
2022-12-08T16:46:38.353Z,94.83
2022-12-08T16:49:09.428Z,94.70
2022-12-08T16:51:37.195Z,94.89
2022-12-08T16:54:05.022Z,94.92
2022-12-08T16:56:33.745Z,94.82
2022-12-08T16:59:02.296Z,94.80
2022-12-08T17:01:30.715Z,94.71
2022-12-08T17:06:46.533Z,93.41
2022-12-08T17:09:14.315Z,93.41
2022-12-08T17:11:43.710Z,93.25
2022-12-08T17:14:14.721Z,93.52
2022-12-08T17:16:44.163Z,93.56
2022-12-08T17:19:14.097Z,93.63
2022-12-08T17:21:42.968Z,93.81
2022-12-08T17:24:10.992Z,93.96
2022-12-08T17:26:38.628Z,94.02
2022-12-08T17:29:06.324Z,93.91
2022-12-08T17:31:34.233Z,93.89
2022-12-08T17:34:04.911Z,94.03
2022-12-08T17:36:32.727Z,94.24
2022-12-08T17:39:01.251Z,94.52
2022-12-08T17:41:29.430Z,94.63
2022-12-08T17:43:57.509Z,94.67
2022-12-08T17:46:25.241Z,94.84
2022-12-08T17:48:53.636Z,94.63
2022-12-08T17:51:21.404Z,94.38
2022-12-08T17:53:49.055Z,94.26
2022-12-08T17:56:21.861Z,93.98
2022-12-08T17:58:54.284Z,93.94
2022-12-08T18:01:24.133Z,94.01
2022-12-08T18:03:51.890Z,94.77
2022-12-08T18:06:19.655Z,95.70
2022-12-08T18:08:47.441Z,95.93
2022-12-08T18:11:19.900Z,96.07
2022-12-08T18:13:50.152Z,95.96
2022-12-08T18:16:21.438Z,95.78
2022-12-08T18:18:49.330Z,95.76
2022-12-08T18:21:23.278Z,95.84
2022-12-08T18:23:52.107Z,96.13
2022-12-08T18:26:19.878Z,96.43
2022-12-08T18:28:47.926Z,96.66
2022-12-08T18:31:19.812Z,96.92
2022-12-08T18:33:49.607Z,97.04
2022-12-08T18:36:21.977Z,97.09
2022-12-08T18:38:50.272Z,97.06
2022-12-08T18:41:25.705Z,96.89
2022-12-08T18:43:55.365Z,96.64
2022-12-08T18:46:24.840Z,96.25
2022-12-08T18:48:53.117Z,95.81
2022-12-08T18:51:24.089Z,95.71
2022-12-08T18:53:52.495Z,95.84
2022-12-08T18:56:33.031Z,95.96
2022-12-08T18:59:08.855Z,95.99
2022-12-08T19:01:38.848Z,96.19
2022-12-08T19:04:28.089Z,96.50
2022-12-08T19:06:57.580Z,96.40
2022-12-08T19:09:26.976Z,96.12
2022-12-08T19:11:56.332Z,96.05
2022-12-08T19:14:28.185Z,96.20
2022-12-08T19:16:58.063Z,96.40
2022-12-08T19:19:27.417Z,96.56
2022-12-08T19:21:56.283Z,96.66
2022-12-08T19:24:24.978Z,96.62
2022-12-08T19:26:53.521Z,96.50
2022-12-08T19:29:21.072Z,96.45
2022-12-08T19:31:48.924Z,96.40
2022-12-08T19:34:19.605Z,96.20
2022-12-08T19:36:48.216Z,95.57
2022-12-08T19:39:40.614Z,95.25
2022-12-08T19:42:36.632Z,95.47
2022-12-08T19:45:13.354Z,95.37
2022-12-08T19:47:41.823Z,95.08
2022-12-08T19:50:30.143Z,94.57
2022-12-08T19:52:58.425Z,94.68
2022-12-08T19:55:27.656Z,94.70
2022-12-08T19:57:56.763Z,94.96
2022-12-08T20:00:24.717Z,95.01
2022-12-08T20:02:52.424Z,95.01
2022-12-08T20:05:20.305Z,95.38
2022-12-08T20:07:48.002Z,95.59
2022-12-08T20:10:30.741Z,95.57
2022-12-08T20:13:17.130Z,95.48
2022-12-08T20:15:45.736Z,95.73
2022-12-08T20:18:15.476Z,96.12
2022-12-08T20:20:45.762Z,96.36
2022-12-08T20:23:15.564Z,96.49
2022-12-08T20:25:45.427Z,96.51
2022-12-08T20:28:14.542Z,96.41
2022-12-08T20:30:44.021Z,96.33
2022-12-08T20:33:14.032Z,96.32
2022-12-08T20:35:43.203Z,96.19
2022-12-08T20:38:13.508Z,96.19
2022-12-08T20:40:46.555Z,96.33
2022-12-08T20:43:15.231Z,96.42
2022-12-08T20:45:43.468Z,96.44
2022-12-08T20:48:11.907Z,96.33
2022-12-08T20:50:40.423Z,96.22
2022-12-08T20:53:09.598Z,96.17
2022-12-08T20:55:43.012Z,96.15
2022-12-08T20:58:12.571Z,96.25
2022-12-08T21:00:40.792Z,96.27
2022-12-08T21:03:09.542Z,96.18
2022-12-08T21:05:39.070Z,96.04
2022-12-08T21:08:08.095Z,95.95
2022-12-08T21:10:42.203Z,95.80
2022-12-08T21:13:12.258Z,95.59
2022-12-08T21:15:46.751Z,95.64
2022-12-08T21:18:17.035Z,95.80
2022-12-08T21:20:45.788Z,96.12
2022-12-08T21:23:14.117Z,96.35
2022-12-08T21:25:45.176Z,96.47
2022-12-08T21:28:13.593Z,96.43
2022-12-08T21:30:43.174Z,96.43
2022-12-08T21:33:10.918Z,96.26
2022-12-08T21:35:38.820Z,95.96
2022-12-08T21:38:07.406Z,96.06
2022-12-08T21:40:35.600Z,96.17
2022-12-08T21:43:06.057Z,96.15
2022-12-08T21:45:34.341Z,96.07
2022-12-08T21:48:10.330Z,95.83
2022-12-08T21:50:39.779Z,95.30
2022-12-08T21:53:08.025Z,94.76
2022-12-08T21:55:35.780Z,94.49
2022-12-08T21:58:03.460Z,94.78
2022-12-08T22:00:37.641Z,95.18
2022-12-08T22:03:06.019Z,95.20
2022-12-08T22:05:35.806Z,95.24
2022-12-08T22:08:03.683Z,95.14
2022-12-08T22:10:31.573Z,95.24
2022-12-08T22:12:59.243Z,95.48
2022-12-08T22:15:29.734Z,95.87
2022-12-08T22:17:57.761Z,96.05
2022-12-08T22:20:25.701Z,95.96
2022-12-08T22:22:53.207Z,95.90
2022-12-08T22:25:21.103Z,95.88
2022-12-08T22:27:48.657Z,95.93
2022-12-08T22:30:16.314Z,96.01
2022-12-08T22:32:43.937Z,95.88
2022-12-08T22:35:11.552Z,95.57
2022-12-08T22:37:39.270Z,95.45
2022-12-08T22:40:08.381Z,95.26
2022-12-08T22:42:36.346Z,95.28
2022-12-08T22:45:04.212Z,95.56
2022-12-08T22:47:31.728Z,95.88
2022-12-08T22:49:59.878Z,96.01
2022-12-08T22:52:27.742Z,95.98
2022-12-08T22:54:55.772Z,96.14
2022-12-08T22:57:23.352Z,96.34
2022-12-08T22:59:50.909Z,96.45
2022-12-08T23:02:18.489Z,96.51
2022-12-08T23:04:46.529Z,96.51
2022-12-08T23:07:14.453Z,96.46
2022-12-08T23:09:42.309Z,96.26
2022-12-08T23:12:10.193Z,96.13
2022-12-08T23:14:38.074Z,96.01
2022-12-08T23:17:05.763Z,95.88
2022-12-08T23:19:37.169Z,95.68
2022-12-08T23:22:05.330Z,95.49
2022-12-08T23:24:33.021Z,95.30
2022-12-08T23:27:00.802Z,95.08
2022-12-08T23:29:28.374Z,95.15
2022-12-08T23:31:56.323Z,95.59
2022-12-08T23:34:24.451Z,96.00
2022-12-08T23:36:52.121Z,96.16
2022-12-08T23:39:19.800Z,96.23
2022-12-08T23:41:47.574Z,96.10
2022-12-08T23:44:15.381Z,95.85
2022-12-08T23:46:43.184Z,95.87
2022-12-08T23:49:11.027Z,96.06
2022-12-08T23:51:39.125Z,96.22
2022-12-08T23:54:07.955Z,96.33
2022-12-08T23:56:35.863Z,96.20
2022-12-08T23:59:03.648Z,96.01
